< < Back
Terminal Aerodrome Forecast


Current Version              Previous Versions:   1  2  3  4  5  6  7  8  9  

Terminal Aerodrome Forecast

776
FTAK31 PAJN 301100
TAFAHN
TAF
PAHN 301123Z 3012/3112 10006KT P6SM -SHRA OVC008
     FM301600 12006KT P6SM BCFG VCSH SCT005 BKN025 OVC050
     FM302000 12008KT P6SM SCT025 BKN050
     FM310900 VRB02KT P6SM SCT005 BKN100
      AMD LTD TO CLD VIS AND WIND=



Latest METAR

436
SAUS70 KWBC 301500
MTRAHN
METAR KAHN 301451Z 06008KT 5SM HZ CLR 24/13 A3007 RMK AO2 SLP177
T02390133 51009


USA.gov is the U.S. government's official web portal to all federal, state and local government web resources and services.